Wanneroo, Australia
Current Conditions -  °F | °C
As of 11:00 AM on Saturday 20 Dec 2014 (Local Time) from YPEA Reporting Station
Clear Clear  
Wind Chill: 79°   Ceiling: Unl
Heat Index: 80°   Visibility: 6mi
Dew Point: 61°   Wind: 18mph
Humidity: 54%   Direction: 240°WSW
Pressure: 29.8"   Gusts: NA
Location:  31.75°S, 115.81°E
Report Text: YPEA 200300Z AUTO 24016KT 9999 // NCD 26/16 Q1009
Loading
Personal Weather Stations






























Interactive Weather Map New forecast layout! Learn more

10-Day Weather Forecast

Advertisements
Track Severe Weather on mobile